Bernard A — TCWN3 — position and weather

sailwx.info

Track history (hours):
 
Tides and Currents Weather Stations Pressure Air Temp Water Temp Dewpoint Dewpoint Depression Visibility Wind Speed Wind Dir Waves Ship Positions

Bernard A

Last reported at 2017-Oct-14 12:10 UTC. Time now 2017-Oct-20 20:07 UTC.
Position N 40°58' E 028°59'.

Length 184 m; draft 7.9 m.

Type: Ship (hazmat cat A). MMSI: 271040008.

Date/timePositionNaut miles runAvg speedWind from/ knotsBaromVisibWave heightAir tempDewpointWater temp
2017-Oct-14 12:10N 40°58' E 028°59'310.6
2017-Oct-14 11:56N 40°56' E 028°58'6 6.5
2017-Oct-14 11:05N 40°51' E 028°56'0 2.3
2017-Oct-14 10:58N 40°50' E 028°56'5 7.6
2017-Oct-14 10:22N 40°48' E 028°51'5 1.4
2017-Oct-14 06:52N 40°47' E 028°45'1 0.4
2017-Oct-14 04:23N 40°48' E 028°45'0 0.2
2017-Oct-14 02:30N 40°48' E 028°45'0 0.4
2017-Oct-14 02:00N 40°48' E 028°45'3 4.5
2017-Oct-14 01:21N 40°51' E 028°45'4 8.5
2017-Oct-14 00:55N 40°54' E 028°43'  
2017-Oct-10 21:08N 40°58' E 028°53'0 0.1
2017-Oct-10 21:01N 40°57' E 028°53'0 0.0
2017-Oct-10 20:21N 40°57' E 028°53'0 0.0
2017-Oct-10 19:15N 40°57' E 028°53'0 0.0
2017-Oct-10 19:00N 40°57' E 028°53'0 0.0
2017-Oct-10 18:30N 40°57' E 028°53'0 0.0
2017-Oct-10 17:40N 40°57' E 028°53'0 0.2
2017-Oct-10 16:46N 40°57' E 028°53'0 0.3
2017-Oct-10 16:30N 40°58' E 028°53'0 0.0
2017-Oct-10 13:48N 40°58' E 028°53'0 0.0
2017-Oct-10 13:27N 40°58' E 028°53'0 0.0
2017-Oct-10 11:10N 40°58' E 028°53'0 0.2
2017-Oct-10 10:55N 40°58' E 028°53'3 7.1
2017-Oct-10 10:27N 40°58' E 028°57'  
2017-Oct-07 08:11N 42°01' E 040°18'312.7
2017-Oct-07 07:58N 42°02' E 040°22'  
Track history (hours):
 
Tides and Currents Weather Stations Pressure Air Temp Water Temp Dewpoint Dewpoint Depression Visibility Wind Speed Wind Dir Waves Ship Positions

Bernard A

Last reported at 2017-Oct-14 12:10 UTC. Time now 2017-Oct-20 20:07 UTC.
Position N 40°58' E 028°59'.

Length 184 m; draft 7.9 m.

Type: Ship (hazmat cat A). MMSI: 271040008.

Date/timePositionNaut miles runAvg speedWind from/ knotsBaromVisibWave heightAir tempDewpointWater temp
2017-Oct-14 12:10N 40°58' E 028°59'310.6
2017-Oct-14 11:56N 40°56' E 028°58'6 6.5
2017-Oct-14 11:05N 40°51' E 028°56'0 2.3
2017-Oct-14 10:58N 40°50' E 028°56'5 7.6
2017-Oct-14 10:22N 40°48' E 028°51'5 1.4
2017-Oct-14 06:52N 40°47' E 028°45'1 0.4
2017-Oct-14 04:23N 40°48' E 028°45'0 0.2
2017-Oct-14 02:30N 40°48' E 028°45'0 0.4
2017-Oct-14 02:00N 40°48' E 028°45'3 4.5
2017-Oct-14 01:21N 40°51' E 028°45'4 8.5
2017-Oct-14 00:55N 40°54' E 028°43'  
2017-Oct-10 21:08N 40°58' E 028°53'0 0.1
2017-Oct-10 21:01N 40°57' E 028°53'0 0.0
2017-Oct-10 20:21N 40°57' E 028°53'0 0.0
2017-Oct-10 19:15N 40°57' E 028°53'0 0.0
2017-Oct-10 19:00N 40°57' E 028°53'0 0.0
2017-Oct-10 18:30N 40°57' E 028°53'0 0.0
2017-Oct-10 17:40N 40°57' E 028°53'0 0.2
2017-Oct-10 16:46N 40°57' E 028°53'0 0.3
2017-Oct-10 16:30N 40°58' E 028°53'0 0.0
2017-Oct-10 13:48N 40°58' E 028°53'0 0.0
2017-Oct-10 13:27N 40°58' E 028°53'0 0.0
2017-Oct-10 11:10N 40°58' E 028°53'0 0.2
2017-Oct-10 10:55N 40°58' E 028°53'3 7.1
2017-Oct-10 10:27N 40°58' E 028°57'  
2017-Oct-07 08:11N 42°01' E 040°18'312.7
2017-Oct-07 07:58N 42°02' E 040°22'  

Dump ship's entire track history